»·PEaware :: N441PW CYYC-KCTB

N441PW :: CYYC-KCTB

FLIGHT INFORMATION

Flight Status: Arrived
Operator: Privately registered:
United States
More flights under this callsign
Pilot: Stacy K. (11621)
Aircraft: CESSNA 404 TITAN
(C404)
More flights by this aircraft type
Origin: CYYC Calgary Intl
Canada
Destination: KCTB Cut Bank Mun
United States
More flights between these airports :: More routes between these airports
Route: EBGAL T688 TOVUM
File this flight plan on PilotEdge
Remarks: RMK / SIMBRIEF
Altitude:
(Current/Filed)
9,000ft
Speed:
(Current/Filed)
234kts
Departed: 06-May-19 02:45 PM
Arrived: 06-May-19 03:42 PM
Distance/Time
Traveled:
163nm/0:57
Distance/Time
To Go:
Arrived

Flight Plot

Page will automatically refresh every two minutes.


Map Options




Map Legend


Flown Route
Filed Route
Departure Airport
Arrival Airport
Navaid (VOR, NDB)
Fix

Horizontal Profiles

Position Reports

Time Latitude Longitude Heading Altitude Ground
Speed
06-May-19 14:27 51.101156 -114.027270 180 3561ft 0kts
06-May-19 14:28 51.101156 -114.027270 180 3561ft 0kts
06-May-19 14:29 51.101156 -114.027270 180 3561ft 0kts
06-May-19 14:30 51.101156 -114.027270 180 3561ft 0kts
06-May-19 14:31 51.101156 -114.027270 180 3561ft 0kts
06-May-19 14:32 51.101156 -114.027270 180 3561ft 0kts
06-May-19 14:33 51.101156 -114.027270 180 3561ft 0kts
06-May-19 14:34 51.101156 -114.027270 180 3561ft 0kts
06-May-19 14:35 51.101156 -114.027270 180 3561ft 0kts
06-May-19 14:36 51.101156 -114.027270 180 3561ft 0kts
06-May-19 14:37 51.101156 -114.027270 180 3561ft 0kts
06-May-19 14:37 51.101156 -114.027270 180 3561ft 0kts
06-May-19 14:39 51.101156 -114.027270 180 3561ft 0kts
06-May-19 14:40 51.101156 -114.027270 180 3561ft 0kts
06-May-19 14:40 51.101156 -114.027270 180 3561ft 0kts
06-May-19 14:42 51.101156 -114.027270 180 3561ft 0kts
06-May-19 14:42 51.098270 -114.026047 139 3561ft 12kts
06-May-19 14:43 51.097271 -114.022291 109 3561ft 0kts
06-May-19 14:45 51.118359 -114.021161 359 4134ft 136kts
06-May-19 14:45 51.122173 -114.021294 359 4267ft 143kts
06-May-19 14:46 51.144601 -114.113601 229 6440ft 184kts
06-May-19 14:47 51.105467 -114.093586 121 7642ft 182kts
06-May-19 14:48 51.099363 -114.078300 123 7911ft 181kts
06-May-19 14:49 51.042282 -113.971543 132 9499ft 187kts
06-May-19 14:50 51.005919 -113.907734 132 9512ft 201kts
06-May-19 14:51 50.968272 -113.841805 132 9498ft 198kts
06-May-19 14:52 50.931221 -113.777113 132 9500ft 197kts
06-May-19 14:53 50.894331 -113.712858 132 9500ft 197kts
06-May-19 14:54 50.857266 -113.648481 132 9500ft 197kts
06-May-19 14:55 50.820327 -113.584477 132 9500ft 197kts
06-May-19 14:56 50.783214 -113.520334 132 9500ft 197kts
06-May-19 14:57 50.746450 -113.456949 132 9501ft 197kts
06-May-19 14:58 50.709389 -113.393181 133 9502ft 197kts
06-May-19 14:59 50.661231 -113.357150 166 9503ft 196kts
06-May-19 15:00 50.608224 -113.336845 166 9503ft 196kts
06-May-19 15:01 50.555415 -113.316199 166 9504ft 196kts
06-May-19 15:02 50.502431 -113.295438 166 9505ft 195kts
06-May-19 15:03 50.449540 -113.274746 166 9505ft 195kts
06-May-19 15:04 50.396837 -113.254174 166 9505ft 195kts
06-May-19 15:05 50.343809 -113.233516 166 9506ft 195kts
06-May-19 15:06 50.291104 -113.213046 166 9506ft 195kts
06-May-19 15:07 50.238267 -113.192564 166 9506ft 195kts
06-May-19 15:08 50.185294 -113.172098 166 9507ft 195kts
06-May-19 15:09 50.132373 -113.151665 166 9507ft 195kts
06-May-19 15:10 50.079458 -113.131283 166 9507ft 195kts
06-May-19 15:11 50.026653 -113.111002 166 9508ft 195kts
06-May-19 15:12 49.973887 -113.090788 166 9508ft 195kts
06-May-19 15:13 49.921483 -113.070742 166 9508ft 194kts
06-May-19 15:14 49.868681 -113.050601 166 9509ft 194kts
06-May-19 15:15 49.816204 -113.030623 166 9509ft 194kts
06-May-19 15:16 49.763522 -113.010612 166 9509ft 194kts
06-May-19 15:17 49.710927 -112.990677 166 9509ft 194kts
06-May-19 15:18 49.658497 -112.970852 166 9509ft 194kts
06-May-19 15:19 49.605753 -112.950953 166 9509ft 194kts
06-May-19 15:20 49.553358 -112.931228 166 9509ft 194kts
06-May-19 15:21 49.540148 -112.926263 166 9509ft 194kts
06-May-19 15:23 49.395609 -112.872109 166 9508ft 194kts
06-May-19 15:24 49.343024 -112.852488 166 9495ft 195kts
06-May-19 15:25 49.290247 -112.832838 166 9491ft 194kts
06-May-19 15:26 49.238116 -112.812099 159 9493ft 194kts
06-May-19 15:27 49.188863 -112.777919 155 9498ft 194kts
06-May-19 15:28 49.139561 -112.743297 155 9501ft 194kts
06-May-19 15:29 49.087460 -112.721968 181 9141ft 205kts
06-May-19 15:30 49.029323 -112.724668 181 8156ft 212kts
06-May-19 15:31 48.970473 -112.727471 181 7143ft 206kts
06-May-19 15:32 48.914022 -112.730188 181 6143ft 200kts
06-May-19 15:33 48.866295 -112.696428 138 5437ft 187kts
06-May-19 15:34 48.829656 -112.644519 138 5416ft 176kts
06-May-19 15:35 48.793703 -112.593711 137 5423ft 176kts
06-May-19 15:36 48.757558 -112.542716 137 5427ft 179kts
06-May-19 15:37 48.720698 -112.490747 138 5430ft 182kts
06-May-19 15:38 48.683251 -112.438963 143 5428ft 181kts
06-May-19 15:39 48.641866 -112.404484 152 4563ft 119kts
06-May-19 15:40 48.615805 -112.383988 152 3915ft 100kts
06-May-19 15:41 48.607151 -112.376958 326 3858ft 26kts
06-May-19 15:42 48.607375 -112.372273 108 3858ft 26kts
06-May-19 15:43 48.606493 -112.366328 240 3858ft 0kts

Navigation Log

Ident Type
Flight plan parsing failed, navigation log unavailable